sensor_id;sensor_type;location;lat;lon;timestamp;P1;durP1;ratioP1;P2;durP2;ratioP2
37785;SDS011;23625;48.784;9.336;2022-10-13T00:00:16;40.22;;;15.27;;
37785;SDS011;23625;48.784;9.336;2022-10-13T00:02:41;36.22;;;14.13;;
37785;SDS011;23625;48.784;9.336;2022-10-13T00:05:07;34.13;;;13.85;;
37785;SDS011;23625;48.784;9.336;2022-10-13T00:07:33;34.58;;;14.93;;
37785;SDS011;23625;48.784;9.336;2022-10-13T00:09:58;36.72;;;14.55;;
37785;SDS011;23625;48.784;9.336;2022-10-13T00:12:24;42.35;;;15.65;;
37785;SDS011;23625;48.784;9.336;2022-10-13T00:14:49;38.60;;;16.83;;
37785;SDS011;23625;48.784;9.336;2022-10-13T00:17:15;35.40;;;15.98;;
37785;SDS011;23625;48.784;9.336;2022-10-13T00:19:41;28.20;;;13.15;;
37785;SDS011;23625;48.784;9.336;2022-10-13T00:22:06;32.80;;;14.05;;
37785;SDS011;23625;48.784;9.336;2022-10-13T00:24:32;29.35;;;14.80;;
37785;SDS011;23625;48.784;9.336;2022-10-13T00:26:57;32.10;;;16.45;;
37785;SDS011;23625;48.784;9.336;2022-10-13T00:29:23;34.65;;;14.52;;
37785;SDS011;23625;48.784;9.336;2022-10-13T00:31:49;32.15;;;13.88;;
37785;SDS011;23625;48.784;9.336;2022-10-13T00:34:14;27.75;;;14.88;;
37785;SDS011;23625;48.784;9.336;2022-10-13T00:36:40;39.85;;;16.17;;
37785;SDS011;23625;48.784;9.336;2022-10-13T00:39:05;40.40;;;18.13;;
37785;SDS011;23625;48.784;9.336;2022-10-13T00:41:32;47.55;;;18.73;;
37785;SDS011;23625;48.784;9.336;2022-10-13T00:43:59;45.40;;;17.10;;
37785;SDS011;23625;48.784;9.336;2022-10-13T00:46:28;44.40;;;17.58;;
37785;SDS011;23625;48.784;9.336;2022-10-13T00:48:59;45.83;;;19.23;;
37785;SDS011;23625;48.784;9.336;2022-10-13T00:51:39;44.20;;;17.65;;
37785;SDS011;23625;48.784;9.336;2022-10-13T00:54:08;44.83;;;19.27;;
37785;SDS011;23625;48.784;9.336;2022-10-13T00:56:37;52.22;;;21.08;;
37785;SDS011;23625;48.784;9.336;2022-10-13T00:59:07;52.97;;;21.42;;
37785;SDS011;23625;48.784;9.336;2022-10-13T01:01:43;50.17;;;21.58;;
37785;SDS011;23625;48.784;9.336;2022-10-13T01:04:08;59.30;;;23.92;;
37785;SDS011;23625;48.784;9.336;2022-10-13T01:06:34;76.63;;;26.52;;
37785;SDS011;23625;48.784;9.336;2022-10-13T01:09:00;72.20;;;26.05;;
37785;SDS011;23625;48.784;9.336;2022-10-13T01:11:41;76.75;;;28.60;;
37785;SDS011;23625;48.784;9.336;2022-10-13T01:14:28;57.17;;;23.42;;
37785;SDS011;23625;48.784;9.336;2022-10-13T01:17:08;50.17;;;22.13;;
37785;SDS011;23625;48.784;9.336;2022-10-13T01:30:29;67.85;;;25.65;;
37785;SDS011;23625;48.784;9.336;2022-10-13T01:38:36;74.53;;;26.15;;
37785;SDS011;23625;48.784;9.336;2022-10-13T01:41:36;69.43;;;27.13;;
37785;SDS011;23625;48.784;9.336;2022-10-13T01:46:30;72.47;;;27.05;;
37785;SDS011;23625;48.784;9.336;2022-10-13T01:49:00;63.08;;;25.20;;
37785;SDS011;23625;48.784;9.336;2022-10-13T01:51:28;69.55;;;26.98;;
37785;SDS011;23625;48.784;9.336;2022-10-13T01:53:56;63.97;;;25.77;;
37785;SDS011;23625;48.784;9.336;2022-10-13T01:56:22;59.22;;;25.35;;
37785;SDS011;23625;48.784;9.336;2022-10-13T01:58:48;57.40;;;25.20;;
37785;SDS011;23625;48.784;9.336;2022-10-13T02:11:37;63.88;;;23.27;;
37785;SDS011;23625;48.784;9.336;2022-10-13T02:14:16;65.63;;;24.23;;
37785;SDS011;23625;48.784;9.336;2022-10-13T02:16:46;71.78;;;25.85;;
37785;SDS011;23625;48.784;9.336;2022-10-13T02:19:15;65.65;;;23.85;;
37785;SDS011;23625;48.784;9.336;2022-10-13T02:21:42;68.30;;;23.70;;
37785;SDS011;23625;48.784;9.336;2022-10-13T02:24:09;68.93;;;24.25;;
37785;SDS011;23625;48.784;9.336;2022-10-13T02:26:35;56.90;;;23.73;;
37785;SDS011;23625;48.784;9.336;2022-10-13T02:29:12;62.45;;;23.55;;
37785;SDS011;23625;48.784;9.336;2022-10-13T02:31:40;55.00;;;23.67;;
37785;SDS011;23625;48.784;9.336;2022-10-13T02:34:07;59.88;;;23.55;;
37785;SDS011;23625;48.784;9.336;2022-10-13T02:36:33;75.35;;;23.35;;
37785;SDS011;23625;48.784;9.336;2022-10-13T02:38:59;74.25;;;22.75;;
37785;SDS011;23625;48.784;9.336;2022-10-13T02:41:24;57.40;;;22.75;;
37785;SDS011;23625;48.784;9.336;2022-10-13T02:43:50;60.08;;;24.38;;
37785;SDS011;23625;48.784;9.336;2022-10-13T02:46:16;61.63;;;22.10;;
37785;SDS011;23625;48.784;9.336;2022-10-13T02:48:41;61.95;;;21.60;;
37785;SDS011;23625;48.784;9.336;2022-10-13T02:51:07;63.17;;;21.92;;
37785;SDS011;23625;48.784;9.336;2022-10-13T02:53:32;58.45;;;21.25;;
37785;SDS011;23625;48.784;9.336;2022-10-13T02:55:58;54.22;;;20.52;;
37785;SDS011;23625;48.784;9.336;2022-10-13T02:58:23;49.97;;;21.35;;
37785;SDS011;23625;48.784;9.336;2022-10-13T03:00:49;50.85;;;21.10;;
37785;SDS011;23625;48.784;9.336;2022-10-13T03:03:15;60.33;;;22.92;;
37785;SDS011;23625;48.784;9.336;2022-10-13T03:05:40;53.83;;;22.98;;
37785;SDS011;23625;48.784;9.336;2022-10-13T03:08:06;57.40;;;22.85;;
37785;SDS011;23625;48.784;9.336;2022-10-13T03:10:32;55.15;;;22.95;;
37785;SDS011;23625;48.784;9.336;2022-10-13T03:12:57;44.58;;;20.95;;
37785;SDS011;23625;48.784;9.336;2022-10-13T03:15:23;48.75;;;21.85;;
37785;SDS011;23625;48.784;9.336;2022-10-13T03:17:49;56.80;;;19.33;;
37785;SDS011;23625;48.784;9.336;2022-10-13T03:20:14;52.50;;;20.58;;
37785;SDS011;23625;48.784;9.336;2022-10-13T03:22:40;45.40;;;19.67;;
37785;SDS011;23625;48.784;9.336;2022-10-13T03:25:06;47.28;;;18.73;;
37785;SDS011;23625;48.784;9.336;2022-10-13T03:27:32;55.95;;;21.48;;
37785;SDS011;23625;48.784;9.336;2022-10-13T03:29:57;48.92;;;18.48;;
37785;SDS011;23625;48.784;9.336;2022-10-13T03:32:23;40.00;;;19.17;;
37785;SDS011;23625;48.784;9.336;2022-10-13T03:34:49;54.78;;;18.45;;
37785;SDS011;23625;48.784;9.336;2022-10-13T03:37:15;45.13;;;17.58;;
37785;SDS011;23625;48.784;9.336;2022-10-13T03:39:41;34.67;;;17.08;;
37785;SDS011;23625;48.784;9.336;2022-10-13T03:42:06;44.78;;;17.77;;
37785;SDS011;23625;48.784;9.336;2022-10-13T03:44:33;36.20;;;15.90;;
37785;SDS011;23625;48.784;9.336;2022-10-13T03:46:58;35.20;;;16.33;;
37785;SDS011;23625;48.784;9.336;2022-10-13T03:49:24;45.08;;;15.75;;
37785;SDS011;23625;48.784;9.336;2022-10-13T03:51:49;32.50;;;16.55;;
37785;SDS011;23625;48.784;9.336;2022-10-13T03:54:15;37.85;;;17.60;;
37785;SDS011;23625;48.784;9.336;2022-10-13T03:56:41;64.03;;;31.80;;
37785;SDS011;23625;48.784;9.336;2022-10-13T03:59:07;35.83;;;15.90;;
37785;SDS011;23625;48.784;9.336;2022-10-13T04:01:35;28.30;;;14.02;;
37785;SDS011;23625;48.784;9.336;2022-10-13T04:04:01;37.90;;;14.27;;
37785;SDS011;23625;48.784;9.336;2022-10-13T04:06:26;36.33;;;14.02;;
37785;SDS011;23625;48.784;9.336;2022-10-13T04:08:54;34.22;;;14.32;;
37785;SDS011;23625;48.784;9.336;2022-10-13T04:11:20;35.47;;;14.15;;
37785;SDS011;23625;48.784;9.336;2022-10-13T04:13:46;31.58;;;15.10;;
37785;SDS011;23625;48.784;9.336;2022-10-13T04:16:22;35.53;;;14.60;;
37785;SDS011;23625;48.784;9.336;2022-10-13T04:18:50;37.70;;;14.45;;
37785;SDS011;23625;48.784;9.336;2022-10-13T04:21:17;44.75;;;14.27;;
37785;SDS011;23625;48.784;9.336;2022-10-13T04:23:42;29.90;;;15.43;;
37785;SDS011;23625;48.784;9.336;2022-10-13T04:26:13;37.53;;;18.35;;
37785;SDS011;23625;48.784;9.336;2022-10-13T04:28:43;41.45;;;22.48;;
37785;SDS011;23625;48.784;9.336;2022-10-13T04:31:10;35.92;;;16.85;;
37785;SDS011;23625;48.784;9.336;2022-10-13T04:33:36;34.63;;;16.17;;
37785;SDS011;23625;48.784;9.336;2022-10-13T04:36:02;37.17;;;14.88;;
37785;SDS011;23625;48.784;9.336;2022-10-13T04:38:29;40.38;;;16.60;;
37785;SDS011;23625;48.784;9.336;2022-10-13T04:40:54;34.95;;;16.42;;
37785;SDS011;23625;48.784;9.336;2022-10-13T04:43:20;41.70;;;17.50;;
37785;SDS011;23625;48.784;9.336;2022-10-13T04:45:46;42.03;;;18.30;;
37785;SDS011;23625;48.784;9.336;2022-10-13T04:48:11;37.28;;;14.60;;
37785;SDS011;23625;48.784;9.336;2022-10-13T04:50:37;44.10;;;19.13;;
37785;SDS011;23625;48.784;9.336;2022-10-13T04:53:02;40.53;;;19.77;;
37785;SDS011;23625;48.784;9.336;2022-10-13T04:55:28;42.55;;;18.88;;
37785;SDS011;23625;48.784;9.336;2022-10-13T04:57:54;32.63;;;15.27;;
37785;SDS011;23625;48.784;9.336;2022-10-13T05:00:19;50.08;;;19.90;;
37785;SDS011;23625;48.784;9.336;2022-10-13T05:02:45;45.63;;;18.13;;
37785;SDS011;23625;48.784;9.336;2022-10-13T05:05:11;43.63;;;21.08;;
37785;SDS011;23625;48.784;9.336;2022-10-13T05:07:36;39.63;;;17.50;;
37785;SDS011;23625;48.784;9.336;2022-10-13T05:10:02;41.60;;;15.30;;
37785;SDS011;23625;48.784;9.336;2022-10-13T05:12:28;30.83;;;13.80;;
37785;SDS011;23625;48.784;9.336;2022-10-13T05:14:53;28.42;;;13.30;;
37785;SDS011;23625;48.784;9.336;2022-10-13T05:17:19;33.50;;;13.52;;
37785;SDS011;23625;48.784;9.336;2022-10-13T05:19:45;34.72;;;14.30;;
37785;SDS011;23625;48.784;9.336;2022-10-13T05:22:10;27.42;;;13.63;;
37785;SDS011;23625;48.784;9.336;2022-10-13T05:24:36;30.83;;;14.25;;
37785;SDS011;23625;48.784;9.336;2022-10-13T05:27:05;34.08;;;12.75;;
37785;SDS011;23625;48.784;9.336;2022-10-13T05:29:33;34.50;;;12.75;;
37785;SDS011;23625;48.784;9.336;2022-10-13T05:31:59;33.40;;;13.27;;
37785;SDS011;23625;48.784;9.336;2022-10-13T05:34:25;33.53;;;14.05;;
37785;SDS011;23625;48.784;9.336;2022-10-13T05:36:50;25.30;;;12.20;;
37785;SDS011;23625;48.784;9.336;2022-10-13T05:39:16;35.63;;;13.38;;
37785;SDS011;23625;48.784;9.336;2022-10-13T05:41:41;35.17;;;14.23;;
37785;SDS011;23625;48.784;9.336;2022-10-13T05:44:07;36.70;;;13.90;;
37785;SDS011;23625;48.784;9.336;2022-10-13T05:46:34;31.73;;;13.30;;
37785;SDS011;23625;48.784;9.336;2022-10-13T05:49:00;31.95;;;13.15;;
37785;SDS011;23625;48.784;9.336;2022-10-13T05:51:27;42.90;;;15.15;;
37785;SDS011;23625;48.784;9.336;2022-10-13T05:54:30;35.15;;;14.75;;
37785;SDS011;23625;48.784;9.336;2022-10-13T05:59:29;33.67;;;13.88;;
37785;SDS011;23625;48.784;9.336;2022-10-13T06:01:58;34.03;;;13.88;;
37785;SDS011;23625;48.784;9.336;2022-10-13T06:04:29;32.65;;;13.82;;
37785;SDS011;23625;48.784;9.336;2022-10-13T06:06:59;38.05;;;13.80;;
37785;SDS011;23625;48.784;9.336;2022-10-13T06:09:26;30.85;;;13.88;;
37785;SDS011;23625;48.784;9.336;2022-10-13T06:11:59;36.22;;;13.88;;
37785;SDS011;23625;48.784;9.336;2022-10-13T06:14:25;31.60;;;13.23;;
37785;SDS011;23625;48.784;9.336;2022-10-13T06:16:51;29.05;;;13.07;;
37785;SDS011;23625;48.784;9.336;2022-10-13T06:19:16;28.88;;;13.07;;
37785;SDS011;23625;48.784;9.336;2022-10-13T06:21:42;36.22;;;13.80;;
37785;SDS011;23625;48.784;9.336;2022-10-13T06:24:07;33.63;;;13.57;;
37785;SDS011;23625;48.784;9.336;2022-10-13T06:26:33;31.98;;;14.07;;
37785;SDS011;23625;48.784;9.336;2022-10-13T06:28:58;39.25;;;13.95;;
37785;SDS011;23625;48.784;9.336;2022-10-13T06:31:24;40.08;;;14.23;;
37785;SDS011;23625;48.784;9.336;2022-10-13T06:33:49;45.65;;;14.70;;
37785;SDS011;23625;48.784;9.336;2022-10-13T06:36:15;32.85;;;14.63;;
37785;SDS011;23625;48.784;9.336;2022-10-13T06:38:41;34.58;;;14.25;;
37785;SDS011;23625;48.784;9.336;2022-10-13T06:41:06;42.08;;;14.38;;
37785;SDS011;23625;48.784;9.336;2022-10-13T06:43:32;37.67;;;14.27;;
37785;SDS011;23625;48.784;9.336;2022-10-13T06:45:59;37.35;;;14.27;;
37785;SDS011;23625;48.784;9.336;2022-10-13T06:48:25;30.88;;;15.07;;
37785;SDS011;23625;48.784;9.336;2022-10-13T06:50:51;37.58;;;14.45;;
37785;SDS011;23625;48.784;9.336;2022-10-13T06:53:17;25.10;;;12.13;;
37785;SDS011;23625;48.784;9.336;2022-10-13T06:55:43;30.23;;;13.52;;
37785;SDS011;23625;48.784;9.336;2022-10-13T06:58:09;34.13;;;13.32;;
37785;SDS011;23625;48.784;9.336;2022-10-13T07:00:35;31.33;;;13.63;;
37785;SDS011;23625;48.784;9.336;2022-10-13T07:03:02;37.95;;;15.40;;
37785;SDS011;23625;48.784;9.336;2022-10-13T07:05:27;35.30;;;13.32;;
37785;SDS011;23625;48.784;9.336;2022-10-13T07:07:54;27.27;;;12.63;;
37785;SDS011;23625;48.784;9.336;2022-10-13T07:10:19;24.35;;;11.90;;
37785;SDS011;23625;48.784;9.336;2022-10-13T07:12:45;30.95;;;13.52;;
37785;SDS011;23625;48.784;9.336;2022-10-13T07:15:10;32.50;;;13.38;;
37785;SDS011;23625;48.784;9.336;2022-10-13T07:17:36;27.08;;;11.73;;
37785;SDS011;23625;48.784;9.336;2022-10-13T07:20:03;34.38;;;13.35;;
37785;SDS011;23625;48.784;9.336;2022-10-13T07:22:29;36.50;;;12.40;;
37785;SDS011;23625;48.784;9.336;2022-10-13T07:24:55;25.35;;;12.45;;
37785;SDS011;23625;48.784;9.336;2022-10-13T07:27:21;32.03;;;12.60;;
37785;SDS011;23625;48.784;9.336;2022-10-13T07:29:46;27.45;;;11.77;;
37785;SDS011;23625;48.784;9.336;2022-10-13T07:32:12;26.88;;;12.43;;
37785;SDS011;23625;48.784;9.336;2022-10-13T07:34:38;36.00;;;12.27;;
37785;SDS011;23625;48.784;9.336;2022-10-13T07:37:03;39.83;;;12.73;;
37785;SDS011;23625;48.784;9.336;2022-10-13T07:39:29;26.50;;;11.93;;
37785;SDS011;23625;48.784;9.336;2022-10-13T07:41:54;27.90;;;12.38;;
37785;SDS011;23625;48.784;9.336;2022-10-13T07:44:20;29.17;;;12.32;;
37785;SDS011;23625;48.784;9.336;2022-10-13T07:46:46;26.15;;;11.13;;
37785;SDS011;23625;48.784;9.336;2022-10-13T07:49:12;23.00;;;11.43;;
37785;SDS011;23625;48.784;9.336;2022-10-13T07:51:38;21.35;;;11.35;;
37785;SDS011;23625;48.784;9.336;2022-10-13T07:54:03;33.45;;;11.35;;
37785;SDS011;23625;48.784;9.336;2022-10-13T07:56:29;24.35;;;11.32;;
37785;SDS011;23625;48.784;9.336;2022-10-13T07:58:54;23.40;;;11.43;;
37785;SDS011;23625;48.784;9.336;2022-10-13T08:01:20;23.38;;;9.98;;
37785;SDS011;23625;48.784;9.336;2022-10-13T08:03:45;27.42;;;10.07;;
37785;SDS011;23625;48.784;9.336;2022-10-13T08:06:11;23.75;;;10.68;;
37785;SDS011;23625;48.784;9.336;2022-10-13T08:08:37;23.00;;;10.63;;
37785;SDS011;23625;48.784;9.336;2022-10-13T08:11:05;20.25;;;10.23;;
37785;SDS011;23625;48.784;9.336;2022-10-13T08:13:33;27.20;;;12.05;;
37785;SDS011;23625;48.784;9.336;2022-10-13T08:15:59;27.00;;;11.13;;
37785;SDS011;23625;48.784;9.336;2022-10-13T08:18:26;24.58;;;9.98;;
37785;SDS011;23625;48.784;9.336;2022-10-13T08:20:52;23.20;;;10.73;;
37785;SDS011;23625;48.784;9.336;2022-10-13T08:23:18;24.42;;;10.80;;
37785;SDS011;23625;48.784;9.336;2022-10-13T08:25:43;24.70;;;9.48;;
37785;SDS011;23625;48.784;9.336;2022-10-13T08:28:19;28.08;;;10.82;;
37785;SDS011;23625;48.784;9.336;2022-10-13T08:30:55;22.48;;;10.65;;
37785;SDS011;23625;48.784;9.336;2022-10-13T08:33:22;23.05;;;9.70;;
37785;SDS011;23625;48.784;9.336;2022-10-13T08:35:48;23.95;;;10.68;;
37785;SDS011;23625;48.784;9.336;2022-10-13T08:38:14;22.83;;;9.45;;
37785;SDS011;23625;48.784;9.336;2022-10-13T08:40:39;27.70;;;10.48;;
37785;SDS011;23625;48.784;9.336;2022-10-13T08:43:11;32.42;;;10.77;;
37785;SDS011;23625;48.784;9.336;2022-10-13T08:45:41;24.67;;;11.10;;
37785;SDS011;23625;48.784;9.336;2022-10-13T08:48:10;27.63;;;11.20;;
37785;SDS011;23625;48.784;9.336;2022-10-13T08:50:43;21.58;;;9.40;;
37785;SDS011;23625;48.784;9.336;2022-10-13T08:55:43;20.52;;;9.63;;
37785;SDS011;23625;48.784;9.336;2022-10-13T08:58:20;20.70;;;9.32;;
37785;SDS011;23625;48.784;9.336;2022-10-13T09:03:29;23.25;;;10.85;;
37785;SDS011;23625;48.784;9.336;2022-10-13T09:08:24;18.52;;;8.68;;
37785;SDS011;23625;48.784;9.336;2022-10-13T09:10:54;22.77;;;8.13;;
37785;SDS011;23625;48.784;9.336;2022-10-13T09:13:20;23.13;;;8.30;;
37785;SDS011;23625;48.784;9.336;2022-10-13T09:15:46;18.13;;;8.55;;
37785;SDS011;23625;48.784;9.336;2022-10-13T09:18:14;19.05;;;9.32;;
37785;SDS011;23625;48.784;9.336;2022-10-13T09:20:40;21.73;;;7.78;;
37785;SDS011;23625;48.784;9.336;2022-10-13T09:23:15;14.50;;;7.68;;
37785;SDS011;23625;48.784;9.336;2022-10-13T09:25:46;26.90;;;8.32;;
37785;SDS011;23625;48.784;9.336;2022-10-13T09:28:21;20.00;;;8.43;;
37785;SDS011;23625;48.784;9.336;2022-10-13T09:30:59;18.60;;;8.82;;
37785;SDS011;23625;48.784;9.336;2022-10-13T09:33:27;15.70;;;7.53;;
37785;SDS011;23625;48.784;9.336;2022-10-13T09:38:25;15.70;;;8.00;;
37785;SDS011;23625;48.784;9.336;2022-10-13T09:41:04;20.80;;;7.82;;
37785;SDS011;23625;48.784;9.336;2022-10-13T09:46:24;16.50;;;7.93;;
37785;SDS011;23625;48.784;9.336;2022-10-13T09:48:53;21.40;;;7.65;;
37785;SDS011;23625;48.784;9.336;2022-10-13T09:51:40;17.73;;;8.68;;
37785;SDS011;23625;48.784;9.336;2022-10-13T09:57:00;15.98;;;8.55;;
37785;SDS011;23625;48.784;9.336;2022-10-13T09:59:32;25.10;;;8.05;;
37785;SDS011;23625;48.784;9.336;2022-10-13T10:02:09;18.00;;;7.82;;
37785;SDS011;23625;48.784;9.336;2022-10-13T10:04:36;17.95;;;7.22;;
37785;SDS011;23625;48.784;9.336;2022-10-13T10:07:10;24.02;;;8.90;;
37785;SDS011;23625;48.784;9.336;2022-10-13T10:09:43;18.08;;;9.02;;
37785;SDS011;23625;48.784;9.336;2022-10-13T10:12:17;22.92;;;8.25;;
37785;SDS011;23625;48.784;9.336;2022-10-13T10:14:45;21.38;;;8.88;;
37785;SDS011;23625;48.784;9.336;2022-10-13T10:19:50;24.15;;;7.82;;
37785;SDS011;23625;48.784;9.336;2022-10-13T10:22:51;24.20;;;8.45;;
37785;SDS011;23625;48.784;9.336;2022-10-13T10:25:30;17.25;;;8.65;;
37785;SDS011;23625;48.784;9.336;2022-10-13T10:31:01;17.35;;;7.82;;
37785;SDS011;23625;48.784;9.336;2022-10-13T10:33:40;22.17;;;7.55;;
37785;SDS011;23625;48.784;9.336;2022-10-13T10:36:38;19.88;;;7.72;;
37785;SDS011;23625;48.784;9.336;2022-10-13T10:45:21;18.00;;;6.75;;
37785;SDS011;23625;48.784;9.336;2022-10-13T10:47:54;17.95;;;8.15;;
37785;SDS011;23625;48.784;9.336;2022-10-13T10:50:23;24.25;;;8.73;;
37785;SDS011;23625;48.784;9.336;2022-10-13T10:53:06;20.50;;;8.40;;
37785;SDS011;23625;48.784;9.336;2022-10-13T10:55:58;17.15;;;7.13;;
37785;SDS011;23625;48.784;9.336;2022-10-13T10:58:55;15.80;;;7.30;;
37785;SDS011;23625;48.784;9.336;2022-10-13T11:07:08;23.27;;;7.65;;
37785;SDS011;23625;48.784;9.336;2022-10-13T11:10:01;16.00;;;7.22;;
37785;SDS011;23625;48.784;9.336;2022-10-13T11:12:44;20.63;;;7.45;;
37785;SDS011;23625;48.784;9.336;2022-10-13T11:17:49;15.43;;;6.93;;
37785;SDS011;23625;48.784;9.336;2022-10-13T11:30:47;19.85;;;6.97;;
37785;SDS011;23625;48.784;9.336;2022-10-13T11:55:52;21.80;;;6.75;;
37785;SDS011;23625;48.784;9.336;2022-10-13T11:58:32;12.98;;;6.85;;
37785;SDS011;23625;48.784;9.336;2022-10-13T12:03:27;28.02;;;7.05;;
37785;SDS011;23625;48.784;9.336;2022-10-13T12:05:55;11.85;;;6.65;;
37785;SDS011;23625;48.784;9.336;2022-10-13T12:08:23;18.02;;;6.00;;
37785;SDS011;23625;48.784;9.336;2022-10-13T12:10:51;18.38;;;6.10;;
37785;SDS011;23625;48.784;9.336;2022-10-13T12:13:22;17.83;;;6.25;;
37785;SDS011;23625;48.784;9.336;2022-10-13T12:15:55;16.85;;;6.25;;
37785;SDS011;23625;48.784;9.336;2022-10-13T12:18:28;16.40;;;6.72;;
37785;SDS011;23625;48.784;9.336;2022-10-13T12:21:20;12.07;;;6.20;;
37785;SDS011;23625;48.784;9.336;2022-10-13T12:23:46;21.77;;;6.07;;
37785;SDS011;23625;48.784;9.336;2022-10-13T12:26:20;14.35;;;6.88;;
37785;SDS011;23625;48.784;9.336;2022-10-13T12:28:56;12.45;;;6.35;;
37785;SDS011;23625;48.784;9.336;2022-10-13T12:31:26;14.18;;;5.68;;
37785;SDS011;23625;48.784;9.336;2022-10-13T12:33:58;19.20;;;6.05;;
37785;SDS011;23625;48.784;9.336;2022-10-13T12:36:26;14.50;;;6.03;;
37785;SDS011;23625;48.784;9.336;2022-10-13T12:39:07;14.20;;;6.32;;
37785;SDS011;23625;48.784;9.336;2022-10-13T12:41:38;12.88;;;5.80;;
37785;SDS011;23625;48.784;9.336;2022-10-13T12:44:07;10.95;;;5.70;;
37785;SDS011;23625;48.784;9.336;2022-10-13T12:46:40;20.02;;;6.53;;
37785;SDS011;23625;48.784;9.336;2022-10-13T12:49:19;13.07;;;5.10;;
37785;SDS011;23625;48.784;9.336;2022-10-13T12:51:52;17.10;;;5.57;;
37785;SDS011;23625;48.784;9.336;2022-10-13T12:54:45;17.38;;;6.05;;
37785;SDS011;23625;48.784;9.336;2022-10-13T12:57:20;10.73;;;5.35;;
37785;SDS011;23625;48.784;9.336;2022-10-13T12:59:59;15.13;;;6.55;;
37785;SDS011;23625;48.784;9.336;2022-10-13T13:02:28;21.00;;;5.57;;
37785;SDS011;23625;48.784;9.336;2022-10-13T13:04:56;25.05;;;5.75;;
37785;SDS011;23625;48.784;9.336;2022-10-13T13:07:26;13.07;;;5.28;;
37785;SDS011;23625;48.784;9.336;2022-10-13T13:12:32;15.43;;;5.53;;
37785;SDS011;23625;48.784;9.336;2022-10-13T13:15:16;22.80;;;5.93;;
37785;SDS011;23625;48.784;9.336;2022-10-13T13:20:46;9.65;;;5.47;;
37785;SDS011;23625;48.784;9.336;2022-10-13T13:23:11;20.90;;;5.70;;
37785;SDS011;23625;48.784;9.336;2022-10-13T13:25:37;13.25;;;5.20;;
37785;SDS011;23625;48.784;9.336;2022-10-13T13:28:03;14.98;;;6.03;;
37785;SDS011;23625;48.784;9.336;2022-10-13T13:30:34;17.38;;;6.30;;
37785;SDS011;23625;48.784;9.336;2022-10-13T13:32:59;13.93;;;5.53;;
37785;SDS011;23625;48.784;9.336;2022-10-13T13:35:25;10.00;;;4.95;;
37785;SDS011;23625;48.784;9.336;2022-10-13T13:37:50;12.75;;;6.57;;
37785;SDS011;23625;48.784;9.336;2022-10-13T13:40:20;19.40;;;5.40;;
37785;SDS011;23625;48.784;9.336;2022-10-13T13:42:47;17.80;;;5.85;;
37785;SDS011;23625;48.784;9.336;2022-10-13T13:45:14;16.83;;;6.43;;
37785;SDS011;23625;48.784;9.336;2022-10-13T13:47:41;17.38;;;5.55;;
37785;SDS011;23625;48.784;9.336;2022-10-13T13:50:26;20.00;;;5.45;;
37785;SDS011;23625;48.784;9.336;2022-10-13T13:52:59;14.60;;;5.53;;
37785;SDS011;23625;48.784;9.336;2022-10-13T13:55:25;18.35;;;5.18;;
37785;SDS011;23625;48.784;9.336;2022-10-13T13:57:52;11.40;;;5.13;;
37785;SDS011;23625;48.784;9.336;2022-10-13T14:00:17;15.73;;;5.93;;
37785;SDS011;23625;48.784;9.336;2022-10-13T14:02:43;22.90;;;6.85;;
37785;SDS011;23625;48.784;9.336;2022-10-13T14:05:10;16.20;;;6.68;;
37785;SDS011;23625;48.784;9.336;2022-10-13T14:07:36;19.67;;;6.38;;
37785;SDS011;23625;48.784;9.336;2022-10-13T14:10:02;16.88;;;5.97;;
37785;SDS011;23625;48.784;9.336;2022-10-13T14:12:29;14.68;;;6.85;;
37785;SDS011;23625;48.784;9.336;2022-10-13T14:14:55;22.13;;;6.78;;
37785;SDS011;23625;48.784;9.336;2022-10-13T14:17:22;22.88;;;6.03;;
37785;SDS011;23625;48.784;9.336;2022-10-13T14:19:48;20.55;;;6.38;;
37785;SDS011;23625;48.784;9.336;2022-10-13T14:22:14;12.00;;;5.30;;
37785;SDS011;23625;48.784;9.336;2022-10-13T14:24:39;16.98;;;6.68;;
37785;SDS011;23625;48.784;9.336;2022-10-13T14:27:05;20.52;;;6.80;;
37785;SDS011;23625;48.784;9.336;2022-10-13T14:29:32;12.80;;;6.03;;
37785;SDS011;23625;48.784;9.336;2022-10-13T14:31:58;17.25;;;6.25;;
37785;SDS011;23625;48.784;9.336;2022-10-13T14:34:24;21.52;;;6.90;;
37785;SDS011;23625;48.784;9.336;2022-10-13T14:36:50;21.83;;;7.05;;
37785;SDS011;23625;48.784;9.336;2022-10-13T14:39:15;16.77;;;6.30;;
37785;SDS011;23625;48.784;9.336;2022-10-13T14:41:41;18.10;;;6.53;;
37785;SDS011;23625;48.784;9.336;2022-10-13T14:44:08;15.43;;;6.50;;
37785;SDS011;23625;48.784;9.336;2022-10-13T14:46:35;12.25;;;6.30;;
37785;SDS011;23625;48.784;9.336;2022-10-13T14:49:01;21.00;;;5.07;;
37785;SDS011;23625;48.784;9.336;2022-10-13T14:51:26;16.15;;;6.40;;
37785;SDS011;23625;48.784;9.336;2022-10-13T14:53:52;20.35;;;5.82;;
37785;SDS011;23625;48.784;9.336;2022-10-13T14:58:45;18.60;;;6.22;;
37785;SDS011;23625;48.784;9.336;2022-10-13T15:01:12;20.35;;;5.93;;
37785;SDS011;23625;48.784;9.336;2022-10-13T15:03:39;14.77;;;5.50;;
37785;SDS011;23625;48.784;9.336;2022-10-13T15:06:04;16.30;;;5.72;;
37785;SDS011;23625;48.784;9.336;2022-10-13T15:08:30;17.85;;;5.85;;
37785;SDS011;23625;48.784;9.336;2022-10-13T15:10:59;15.13;;;5.93;;
37785;SDS011;23625;48.784;9.336;2022-10-13T15:13:26;11.05;;;5.00;;
37785;SDS011;23625;48.784;9.336;2022-10-13T15:15:52;20.58;;;5.50;;
37785;SDS011;23625;48.784;9.336;2022-10-13T15:18:18;11.30;;;5.25;;
37785;SDS011;23625;48.784;9.336;2022-10-13T15:20:47;12.93;;;5.85;;
37785;SDS011;23625;48.784;9.336;2022-10-13T15:23:14;21.70;;;5.70;;
37785;SDS011;23625;48.784;9.336;2022-10-13T15:25:40;29.27;;;7.53;;
37785;SDS011;23625;48.784;9.336;2022-10-13T15:28:22;20.08;;;6.80;;
37785;SDS011;23625;48.784;9.336;2022-10-13T15:30:49;27.98;;;9.90;;
37785;SDS011;23625;48.784;9.336;2022-10-13T15:33:14;23.92;;;9.77;;
37785;SDS011;23625;48.784;9.336;2022-10-13T15:35:40;31.92;;;10.27;;
37785;SDS011;23625;48.784;9.336;2022-10-13T15:38:06;25.65;;;8.90;;
37785;SDS011;23625;48.784;9.336;2022-10-13T15:40:32;26.58;;;9.15;;
37785;SDS011;23625;48.784;9.336;2022-10-13T15:42:58;18.63;;;7.80;;
37785;SDS011;23625;48.784;9.336;2022-10-13T15:45:24;19.40;;;7.65;;
37785;SDS011;23625;48.784;9.336;2022-10-13T15:47:50;21.75;;;8.75;;
37785;SDS011;23625;48.784;9.336;2022-10-13T15:50:16;15.73;;;8.07;;
37785;SDS011;23625;48.784;9.336;2022-10-13T15:52:42;22.60;;;6.80;;
37785;SDS011;23625;48.784;9.336;2022-10-13T15:55:08;14.90;;;7.22;;
37785;SDS011;23625;48.784;9.336;2022-10-13T15:57:35;25.92;;;7.38;;
37785;SDS011;23625;48.784;9.336;2022-10-13T16:00:02;20.65;;;7.65;;
37785;SDS011;23625;48.784;9.336;2022-10-13T16:02:29;17.55;;;7.65;;
37785;SDS011;23625;48.784;9.336;2022-10-13T16:04:55;27.67;;;8.50;;
37785;SDS011;23625;48.784;9.336;2022-10-13T16:07:22;13.98;;;7.20;;
37785;SDS011;23625;48.784;9.336;2022-10-13T16:09:48;25.50;;;8.50;;
37785;SDS011;23625;48.784;9.336;2022-10-13T16:12:13;16.70;;;7.53;;
37785;SDS011;23625;48.784;9.336;2022-10-13T16:14:39;20.67;;;9.07;;
37785;SDS011;23625;48.784;9.336;2022-10-13T16:17:04;25.00;;;7.85;;
37785;SDS011;23625;48.784;9.336;2022-10-13T16:19:30;17.08;;;8.75;;
37785;SDS011;23625;48.784;9.336;2022-10-13T16:21:55;26.50;;;9.45;;
37785;SDS011;23625;48.784;9.336;2022-10-13T16:24:21;31.90;;;11.48;;